sensor_id;sensor_type;location;lat;lon;timestamp;P1;durP1;ratioP1;P2;durP2;ratioP2
10469;SDS011;5282;47.052;15.458;2024-02-21T00:01:48;12.37;;;8.70;;
10469;SDS011;5282;47.052;15.458;2024-02-21T00:04:15;12.63;;;8.50;;
10469;SDS011;5282;47.052;15.458;2024-02-21T00:06:42;9.87;;;7.67;;
10469;SDS011;5282;47.052;15.458;2024-02-21T00:09:09;14.23;;;9.43;;
10469;SDS011;5282;47.052;15.458;2024-02-21T00:11:37;14.13;;;9.17;;
10469;SDS011;5282;47.052;15.458;2024-02-21T00:14:04;12.53;;;9.23;;
10469;SDS011;5282;47.052;15.458;2024-02-21T00:16:32;15.57;;;9.47;;
10469;SDS011;5282;47.052;15.458;2024-02-21T00:18:58;15.00;;;9.43;;
10469;SDS011;5282;47.052;15.458;2024-02-21T00:21:25;12.97;;;9.07;;
10469;SDS011;5282;47.052;15.458;2024-02-21T00:23:52;11.60;;;8.73;;
10469;SDS011;5282;47.052;15.458;2024-02-21T00:26:21;15.70;;;8.33;;
10469;SDS011;5282;47.052;15.458;2024-02-21T00:28:51;10.60;;;8.50;;
10469;SDS011;5282;47.052;15.458;2024-02-21T00:31:18;13.20;;;7.57;;
10469;SDS011;5282;47.052;15.458;2024-02-21T00:33:44;11.37;;;7.93;;
10469;SDS011;5282;47.052;15.458;2024-02-21T00:36:11;10.37;;;6.33;;
10469;SDS011;5282;47.052;15.458;2024-02-21T00:38:40;9.80;;;6.93;;
10469;SDS011;5282;47.052;15.458;2024-02-21T00:41:07;8.53;;;6.43;;
10469;SDS011;5282;47.052;15.458;2024-02-21T00:43:34;7.30;;;6.13;;
10469;SDS011;5282;47.052;15.458;2024-02-21T00:46:02;7.33;;;6.07;;
10469;SDS011;5282;47.052;15.458;2024-02-21T00:48:29;7.80;;;5.93;;
10469;SDS011;5282;47.052;15.458;2024-02-21T00:50:56;7.93;;;6.80;;
10469;SDS011;5282;47.052;15.458;2024-02-21T00:53:23;8.40;;;6.63;;
10469;SDS011;5282;47.052;15.458;2024-02-21T00:55:50;9.57;;;6.50;;
10469;SDS011;5282;47.052;15.458;2024-02-21T00:58:17;7.77;;;6.23;;
10469;SDS011;5282;47.052;15.458;2024-02-21T01:00:44;7.57;;;5.63;;
10469;SDS011;5282;47.052;15.458;2024-02-21T01:03:12;6.30;;;5.60;;
10469;SDS011;5282;47.052;15.458;2024-02-21T01:05:40;6.00;;;5.40;;
10469;SDS011;5282;47.052;15.458;2024-02-21T01:08:13;5.77;;;5.20;;
10469;SDS011;5282;47.052;15.458;2024-02-21T01:10:41;6.27;;;5.60;;
10469;SDS011;5282;47.052;15.458;2024-02-21T01:13:14;5.40;;;4.90;;
10469;SDS011;5282;47.052;15.458;2024-02-21T01:15:41;5.07;;;4.53;;
10469;SDS011;5282;47.052;15.458;2024-02-21T01:18:14;6.60;;;5.00;;
10469;SDS011;5282;47.052;15.458;2024-02-21T01:20:41;6.13;;;4.90;;
10469;SDS011;5282;47.052;15.458;2024-02-21T01:23:09;7.80;;;5.40;;
10469;SDS011;5282;47.052;15.458;2024-02-21T01:25:35;5.70;;;5.20;;
10469;SDS011;5282;47.052;15.458;2024-02-21T01:28:03;6.00;;;5.40;;
10469;SDS011;5282;47.052;15.458;2024-02-21T01:30:30;5.90;;;5.23;;
10469;SDS011;5282;47.052;15.458;2024-02-21T01:32:57;4.90;;;4.53;;
10469;SDS011;5282;47.052;15.458;2024-02-21T01:35:25;5.40;;;4.90;;
10469;SDS011;5282;47.052;15.458;2024-02-21T01:37:53;5.00;;;4.67;;
10469;SDS011;5282;47.052;15.458;2024-02-21T01:40:19;5.23;;;4.70;;
10469;SDS011;5282;47.052;15.458;2024-02-21T01:42:46;5.77;;;5.27;;
10469;SDS011;5282;47.052;15.458;2024-02-21T01:45:14;4.90;;;4.53;;
10469;SDS011;5282;47.052;15.458;2024-02-21T01:47:41;5.67;;;5.17;;
10469;SDS011;5282;47.052;15.458;2024-02-21T01:50:08;4.93;;;4.50;;
10469;SDS011;5282;47.052;15.458;2024-02-21T01:52:37;5.87;;;5.20;;
10469;SDS011;5282;47.052;15.458;2024-02-21T01:55:06;5.93;;;4.87;;
10469;SDS011;5282;47.052;15.458;2024-02-21T01:57:34;5.50;;;4.70;;
10469;SDS011;5282;47.052;15.458;2024-02-21T02:00:01;5.90;;;5.40;;
10469;SDS011;5282;47.052;15.458;2024-02-21T02:02:28;5.67;;;5.17;;
10469;SDS011;5282;47.052;15.458;2024-02-21T02:04:56;5.23;;;4.80;;
10469;SDS011;5282;47.052;15.458;2024-02-21T02:07:26;4.83;;;4.43;;
10469;SDS011;5282;47.052;15.458;2024-02-21T02:09:54;5.60;;;4.63;;
10469;SDS011;5282;47.052;15.458;2024-02-21T02:12:21;4.80;;;4.40;;
10469;SDS011;5282;47.052;15.458;2024-02-21T02:14:57;4.47;;;4.07;;
10469;SDS011;5282;47.052;15.458;2024-02-21T02:17:24;4.93;;;4.53;;
10469;SDS011;5282;47.052;15.458;2024-02-21T02:19:51;5.37;;;4.90;;
10469;SDS011;5282;47.052;15.458;2024-02-21T02:22:19;4.40;;;4.07;;
10469;SDS011;5282;47.052;15.458;2024-02-21T02:24:52;5.07;;;4.67;;
10469;SDS011;5282;47.052;15.458;2024-02-21T02:27:19;4.20;;;3.90;;
10469;SDS011;5282;47.052;15.458;2024-02-21T02:29:48;4.13;;;3.83;;
10469;SDS011;5282;47.052;15.458;2024-02-21T02:32:15;5.23;;;4.10;;
10469;SDS011;5282;47.052;15.458;2024-02-21T02:34:42;4.50;;;4.20;;
10469;SDS011;5282;47.052;15.458;2024-02-21T02:37:09;4.13;;;3.87;;
10469;SDS011;5282;47.052;15.458;2024-02-21T02:39:36;4.50;;;3.67;;
10469;SDS011;5282;47.052;15.458;2024-02-21T02:42:04;5.03;;;4.00;;
10469;SDS011;5282;47.052;15.458;2024-02-21T02:44:32;3.87;;;3.57;;
10469;SDS011;5282;47.052;15.458;2024-02-21T02:46:58;3.53;;;3.33;;
10469;SDS011;5282;47.052;15.458;2024-02-21T02:49:25;3.57;;;3.27;;
10469;SDS011;5282;47.052;15.458;2024-02-21T02:51:52;3.27;;;3.13;;
10469;SDS011;5282;47.052;15.458;2024-02-21T02:54:19;3.93;;;3.63;;
10469;SDS011;5282;47.052;15.458;2024-02-21T02:56:46;3.23;;;3.03;;
10469;SDS011;5282;47.052;15.458;2024-02-21T02:59:14;3.10;;;3.00;;
10469;SDS011;5282;47.052;15.458;2024-02-21T03:01:41;3.47;;;3.27;;
10469;SDS011;5282;47.052;15.458;2024-02-21T03:04:10;3.00;;;2.90;;
10469;SDS011;5282;47.052;15.458;2024-02-21T03:06:37;3.10;;;2.90;;
10469;SDS011;5282;47.052;15.458;2024-02-21T03:09:04;2.93;;;2.73;;
10469;SDS011;5282;47.052;15.458;2024-02-21T03:11:34;3.57;;;3.20;;
10469;SDS011;5282;47.052;15.458;2024-02-21T03:14:02;3.17;;;2.97;;
10469;SDS011;5282;47.052;15.458;2024-02-21T03:16:30;3.10;;;2.97;;
10469;SDS011;5282;47.052;15.458;2024-02-21T03:18:57;3.80;;;2.93;;
10469;SDS011;5282;47.052;15.458;2024-02-21T03:21:24;2.90;;;2.70;;
10469;SDS011;5282;47.052;15.458;2024-02-21T03:23:54;3.33;;;3.13;;
10469;SDS011;5282;47.052;15.458;2024-02-21T03:26:23;3.07;;;2.80;;
10469;SDS011;5282;47.052;15.458;2024-02-21T03:28:51;2.93;;;2.73;;
10469;SDS011;5282;47.052;15.458;2024-02-21T03:31:21;3.13;;;2.70;;
10469;SDS011;5282;47.052;15.458;2024-02-21T03:33:49;2.87;;;2.77;;
10469;SDS011;5282;47.052;15.458;2024-02-21T03:36:19;3.20;;;2.90;;
10469;SDS011;5282;47.052;15.458;2024-02-21T03:38:46;3.47;;;3.17;;
10469;SDS011;5282;47.052;15.458;2024-02-21T03:41:14;3.20;;;3.00;;
10469;SDS011;5282;47.052;15.458;2024-02-21T03:43:40;3.37;;;3.00;;
10469;SDS011;5282;47.052;15.458;2024-02-21T03:46:08;3.60;;;3.30;;
10469;SDS011;5282;47.052;15.458;2024-02-21T03:48:35;3.10;;;2.90;;
10469;SDS011;5282;47.052;15.458;2024-02-21T03:51:04;3.30;;;3.00;;
10469;SDS011;5282;47.052;15.458;2024-02-21T03:53:31;3.83;;;3.53;;
10469;SDS011;5282;47.052;15.458;2024-02-21T03:56:00;6.70;;;3.43;;
10469;SDS011;5282;47.052;15.458;2024-02-21T03:58:29;3.37;;;3.17;;
10469;SDS011;5282;47.052;15.458;2024-02-21T04:00:56;4.07;;;3.77;;
10469;SDS011;5282;47.052;15.458;2024-02-21T04:03:23;3.40;;;3.20;;
10469;SDS011;5282;47.052;15.458;2024-02-21T04:05:50;4.43;;;3.77;;
10469;SDS011;5282;47.052;15.458;2024-02-21T04:08:20;4.07;;;3.80;;
10469;SDS011;5282;47.052;15.458;2024-02-21T04:10:49;4.27;;;3.87;;
10469;SDS011;5282;47.052;15.458;2024-02-21T04:13:16;3.60;;;3.30;;
10469;SDS011;5282;47.052;15.458;2024-02-21T04:15:44;4.30;;;3.40;;
10469;SDS011;5282;47.052;15.458;2024-02-21T04:18:10;3.50;;;3.30;;
10469;SDS011;5282;47.052;15.458;2024-02-21T04:20:37;3.50;;;3.30;;
10469;SDS011;5282;47.052;15.458;2024-02-21T04:23:04;3.50;;;3.20;;
10469;SDS011;5282;47.052;15.458;2024-02-21T04:25:32;3.17;;;2.97;;
10469;SDS011;5282;47.052;15.458;2024-02-21T04:27:59;3.70;;;3.40;;
10469;SDS011;5282;47.052;15.458;2024-02-21T04:30:26;4.67;;;3.90;;
10469;SDS011;5282;47.052;15.458;2024-02-21T04:32:53;3.70;;;3.50;;
10469;SDS011;5282;47.052;15.458;2024-02-21T04:35:20;3.43;;;3.23;;
10469;SDS011;5282;47.052;15.458;2024-02-21T04:37:47;3.73;;;3.53;;
10469;SDS011;5282;47.052;15.458;2024-02-21T04:40:14;3.87;;;3.60;;
10469;SDS011;5282;47.052;15.458;2024-02-21T04:42:43;3.53;;;3.30;;
10469;SDS011;5282;47.052;15.458;2024-02-21T04:45:11;3.00;;;2.80;;
10469;SDS011;5282;47.052;15.458;2024-02-21T04:47:38;3.40;;;3.20;;
10469;SDS011;5282;47.052;15.458;2024-02-21T04:50:05;3.30;;;3.10;;
10469;SDS011;5282;47.052;15.458;2024-02-21T04:52:32;4.30;;;3.20;;
10469;SDS011;5282;47.052;15.458;2024-02-21T04:54:59;3.60;;;3.40;;
10469;SDS011;5282;47.052;15.458;2024-02-21T04:57:26;3.50;;;3.20;;
10469;SDS011;5282;47.052;15.458;2024-02-21T04:59:54;3.33;;;3.13;;
10469;SDS011;5282;47.052;15.458;2024-02-21T05:02:21;3.40;;;3.20;;
10469;SDS011;5282;47.052;15.458;2024-02-21T05:04:49;4.13;;;3.37;;
10469;SDS011;5282;47.052;15.458;2024-02-21T05:07:16;6.50;;;3.70;;
10469;SDS011;5282;47.052;15.458;2024-02-21T05:09:44;3.63;;;3.33;;
10469;SDS011;5282;47.052;15.458;2024-02-21T05:12:11;3.70;;;3.50;;
10469;SDS011;5282;47.052;15.458;2024-02-21T05:14:38;4.07;;;3.20;;
10469;SDS011;5282;47.052;15.458;2024-02-21T05:17:07;3.80;;;3.50;;
10469;SDS011;5282;47.052;15.458;2024-02-21T05:19:33;4.07;;;3.13;;
10469;SDS011;5282;47.052;15.458;2024-02-21T05:22:00;3.47;;;3.20;;
10469;SDS011;5282;47.052;15.458;2024-02-21T05:24:27;3.73;;;3.40;;
10469;SDS011;5282;47.052;15.458;2024-02-21T05:26:55;3.83;;;3.53;;
10469;SDS011;5282;47.052;15.458;2024-02-21T05:29:21;7.77;;;3.30;;
10469;SDS011;5282;47.052;15.458;2024-02-21T05:31:55;7.00;;;3.73;;
10469;SDS011;5282;47.052;15.458;2024-02-21T05:34:25;4.53;;;3.57;;
10469;SDS011;5282;47.052;15.458;2024-02-21T05:36:52;4.00;;;3.70;;
10469;SDS011;5282;47.052;15.458;2024-02-21T05:39:19;4.03;;;3.70;;
10469;SDS011;5282;47.052;15.458;2024-02-21T05:41:48;4.10;;;3.70;;
10469;SDS011;5282;47.052;15.458;2024-02-21T05:44:16;6.73;;;3.40;;
10469;SDS011;5282;47.052;15.458;2024-02-21T05:46:43;3.70;;;3.50;;
10469;SDS011;5282;47.052;15.458;2024-02-21T05:49:10;6.30;;;4.17;;
10469;SDS011;5282;47.052;15.458;2024-02-21T05:51:38;4.57;;;3.80;;
10469;SDS011;5282;47.052;15.458;2024-02-21T05:54:05;3.87;;;3.53;;
10469;SDS011;5282;47.052;15.458;2024-02-21T05:56:33;3.77;;;3.30;;
10469;SDS011;5282;47.052;15.458;2024-02-21T05:59:00;3.90;;;3.60;;
10469;SDS011;5282;47.052;15.458;2024-02-21T06:01:27;5.27;;;3.73;;
10469;SDS011;5282;47.052;15.458;2024-02-21T06:03:54;10.23;;;4.13;;
10469;SDS011;5282;47.052;15.458;2024-02-21T06:06:21;3.50;;;3.20;;
10469;SDS011;5282;47.052;15.458;2024-02-21T06:08:50;5.00;;;3.60;;
10469;SDS011;5282;47.052;15.458;2024-02-21T06:11:17;5.63;;;3.90;;
10469;SDS011;5282;47.052;15.458;2024-02-21T06:13:43;4.73;;;3.90;;
10469;SDS011;5282;47.052;15.458;2024-02-21T06:16:10;4.10;;;3.80;;
10469;SDS011;5282;47.052;15.458;2024-02-21T06:18:37;4.67;;;4.27;;
10469;SDS011;5282;47.052;15.458;2024-02-21T06:21:05;5.57;;;4.80;;
10469;SDS011;5282;47.052;15.458;2024-02-21T06:23:31;5.57;;;3.70;;
10469;SDS011;5282;47.052;15.458;2024-02-21T06:26:00;5.47;;;4.30;;
10469;SDS011;5282;47.052;15.458;2024-02-21T06:28:27;4.80;;;4.40;;
10469;SDS011;5282;47.052;15.458;2024-02-21T06:30:54;4.20;;;3.97;;
10469;SDS011;5282;47.052;15.458;2024-02-21T06:33:21;4.20;;;3.80;;
10469;SDS011;5282;47.052;15.458;2024-02-21T06:35:50;4.73;;;3.90;;
10469;SDS011;5282;47.052;15.458;2024-02-21T06:38:19;4.03;;;3.73;;
10469;SDS011;5282;47.052;15.458;2024-02-21T06:40:46;5.00;;;3.93;;
10469;SDS011;5282;47.052;15.458;2024-02-21T06:43:17;4.20;;;3.90;;
10469;SDS011;5282;47.052;15.458;2024-02-21T06:45:45;4.00;;;3.80;;
10469;SDS011;5282;47.052;15.458;2024-02-21T06:48:16;6.63;;;3.97;;
10469;SDS011;5282;47.052;15.458;2024-02-21T06:50:44;4.50;;;4.13;;
10469;SDS011;5282;47.052;15.458;2024-02-21T06:53:11;5.60;;;4.50;;
10469;SDS011;5282;47.052;15.458;2024-02-21T06:55:38;8.33;;;4.90;;
10469;SDS011;5282;47.052;15.458;2024-02-21T06:58:05;8.30;;;4.53;;
10469;SDS011;5282;47.052;15.458;2024-02-21T07:00:38;4.63;;;4.23;;
10469;SDS011;5282;47.052;15.458;2024-02-21T07:03:05;6.13;;;4.23;;
10469;SDS011;5282;47.052;15.458;2024-02-21T07:05:33;5.57;;;4.33;;
10469;SDS011;5282;47.052;15.458;2024-02-21T07:07:59;4.23;;;3.93;;
10469;SDS011;5282;47.052;15.458;2024-02-21T07:10:26;4.03;;;3.77;;
10469;SDS011;5282;47.052;15.458;2024-02-21T07:12:54;5.07;;;3.80;;
10469;SDS011;5282;47.052;15.458;2024-02-21T07:15:21;5.13;;;3.50;;
10469;SDS011;5282;47.052;15.458;2024-02-21T07:17:49;6.17;;;4.03;;
10469;SDS011;5282;47.052;15.458;2024-02-21T07:20:16;4.23;;;3.80;;
10469;SDS011;5282;47.052;15.458;2024-02-21T07:22:45;5.13;;;3.97;;
10469;SDS011;5282;47.052;15.458;2024-02-21T07:25:12;4.93;;;3.50;;
10469;SDS011;5282;47.052;15.458;2024-02-21T07:27:39;3.33;;;3.13;;
10469;SDS011;5282;47.052;15.458;2024-02-21T07:30:08;4.43;;;3.00;;
10469;SDS011;5282;47.052;15.458;2024-02-21T07:32:35;3.03;;;2.73;;
10469;SDS011;5282;47.052;15.458;2024-02-21T07:35:03;2.83;;;2.63;;
10469;SDS011;5282;47.052;15.458;2024-02-21T07:37:36;5.93;;;3.13;;
10469;SDS011;5282;47.052;15.458;2024-02-21T07:40:03;5.60;;;3.13;;
10469;SDS011;5282;47.052;15.458;2024-02-21T07:42:32;3.73;;;3.33;;
10469;SDS011;5282;47.052;15.458;2024-02-21T07:44:59;3.57;;;3.27;;
10469;SDS011;5282;47.052;15.458;2024-02-21T07:47:26;6.50;;;2.87;;
10469;SDS011;5282;47.052;15.458;2024-02-21T07:49:53;5.97;;;5.43;;
10469;SDS011;5282;47.052;15.458;2024-02-21T07:58:51;8.17;;;5.30;;
10469;SDS011;5282;47.052;15.458;2024-02-21T08:01:18;10.53;;;5.90;;
10469;SDS011;5282;47.052;15.458;2024-02-21T08:03:46;5.27;;;4.77;;
10469;SDS011;5282;47.052;15.458;2024-02-21T08:06:13;6.73;;;4.80;;
10469;SDS011;5282;47.052;15.458;2024-02-21T08:08:40;5.63;;;4.53;;
10469;SDS011;5282;47.052;15.458;2024-02-21T08:11:08;5.27;;;4.40;;
10469;SDS011;5282;47.052;15.458;2024-02-21T08:13:36;4.80;;;4.20;;
10469;SDS011;5282;47.052;15.458;2024-02-21T08:16:03;5.80;;;4.30;;
10469;SDS011;5282;47.052;15.458;2024-02-21T08:18:30;6.10;;;4.13;;
10469;SDS011;5282;47.052;15.458;2024-02-21T08:20:59;4.23;;;3.93;;
10469;SDS011;5282;47.052;15.458;2024-02-21T08:23:26;6.77;;;4.47;;
10469;SDS011;5282;47.052;15.458;2024-02-21T08:25:53;5.37;;;4.80;;
10469;SDS011;5282;47.052;15.458;2024-02-21T08:28:19;4.87;;;4.30;;
10469;SDS011;5282;47.052;15.458;2024-02-21T08:30:48;6.03;;;4.50;;
10469;SDS011;5282;47.052;15.458;2024-02-21T08:33:14;4.10;;;3.77;;
10469;SDS011;5282;47.052;15.458;2024-02-21T08:35:42;3.67;;;3.40;;
10469;SDS011;5282;47.052;15.458;2024-02-21T08:38:09;4.40;;;4.00;;
10469;SDS011;5282;47.052;15.458;2024-02-21T08:40:35;4.70;;;4.30;;
10469;SDS011;5282;47.052;15.458;2024-02-21T08:43:03;5.40;;;3.50;;
10469;SDS011;5282;47.052;15.458;2024-02-21T08:45:30;3.77;;;3.33;;
10469;SDS011;5282;47.052;15.458;2024-02-21T08:47:58;3.10;;;2.90;;
10469;SDS011;5282;47.052;15.458;2024-02-21T08:50:25;3.17;;;2.90;;
10469;SDS011;5282;47.052;15.458;2024-02-21T08:52:51;3.30;;;3.00;;
10469;SDS011;5282;47.052;15.458;2024-02-21T08:55:19;4.27;;;2.80;;
10469;SDS011;5282;47.052;15.458;2024-02-21T08:57:46;3.43;;;3.17;;
10469;SDS011;5282;47.052;15.458;2024-02-21T09:00:13;4.20;;;3.20;;
10469;SDS011;5282;47.052;15.458;2024-02-21T09:02:42;3.60;;;3.00;;
10469;SDS011;5282;47.052;15.458;2024-02-21T09:05:10;3.47;;;3.13;;
10469;SDS011;5282;47.052;15.458;2024-02-21T09:07:37;3.63;;;3.47;;
10469;SDS011;5282;47.052;15.458;2024-02-21T09:10:04;2.53;;;2.33;;
10469;SDS011;5282;47.052;15.458;2024-02-21T09:12:32;2.60;;;2.40;;
10469;SDS011;5282;47.052;15.458;2024-02-21T09:14:59;2.47;;;2.03;;
10469;SDS011;5282;47.052;15.458;2024-02-21T09:17:25;3.00;;;2.80;;
10469;SDS011;5282;47.052;15.458;2024-02-21T09:19:54;3.30;;;3.10;;
10469;SDS011;5282;47.052;15.458;2024-02-21T09:22:25;3.20;;;3.00;;
10469;SDS011;5282;47.052;15.458;2024-02-21T09:24:52;3.47;;;3.10;;
10469;SDS011;5282;47.052;15.458;2024-02-21T09:27:19;3.47;;;3.10;;
10469;SDS011;5282;47.052;15.458;2024-02-21T09:29:47;4.70;;;3.13;;
10469;SDS011;5282;47.052;15.458;2024-02-21T09:32:14;8.00;;;3.00;;
10469;SDS011;5282;47.052;15.458;2024-02-21T09:34:41;3.70;;;2.90;;
10469;SDS011;5282;47.052;15.458;2024-02-21T09:37:08;3.20;;;3.00;;
10469;SDS011;5282;47.052;15.458;2024-02-21T09:39:36;3.27;;;2.90;;
10469;SDS011;5282;47.052;15.458;2024-02-21T09:42:05;4.00;;;2.90;;
10469;SDS011;5282;47.052;15.458;2024-02-21T09:44:33;4.67;;;2.47;;
10469;SDS011;5282;47.052;15.458;2024-02-21T09:47:04;2.00;;;1.90;;
10469;SDS011;5282;47.052;15.458;2024-02-21T09:49:33;3.33;;;2.83;;
10469;SDS011;5282;47.052;15.458;2024-02-21T09:52:04;3.00;;;2.57;;
10469;SDS011;5282;47.052;15.458;2024-02-21T09:54:32;2.50;;;2.10;;
10469;SDS011;5282;47.052;15.458;2024-02-21T09:57:03;2.93;;;2.23;;
10469;SDS011;5282;47.052;15.458;2024-02-21T09:59:31;2.13;;;2.03;;
10469;SDS011;5282;47.052;15.458;2024-02-21T10:02:01;3.23;;;2.20;;
10469;SDS011;5282;47.052;15.458;2024-02-21T10:04:28;4.57;;;2.77;;
10469;SDS011;5282;47.052;15.458;2024-02-21T10:06:56;2.30;;;2.20;;
10469;SDS011;5282;47.052;15.458;2024-02-21T10:09:23;2.40;;;2.10;;
10469;SDS011;5282;47.052;15.458;2024-02-21T10:11:53;2.30;;;2.20;;
10469;SDS011;5282;47.052;15.458;2024-02-21T10:14:22;2.70;;;2.30;;
10469;SDS011;5282;47.052;15.458;2024-02-21T10:16:57;2.27;;;2.13;;
10469;SDS011;5282;47.052;15.458;2024-02-21T10:19:24;2.50;;;2.30;;
10469;SDS011;5282;47.052;15.458;2024-02-21T10:24:36;2.20;;;2.10;;
10469;SDS011;5282;47.052;15.458;2024-02-21T10:27:06;2.30;;;2.20;;
10469;SDS011;5282;47.052;15.458;2024-02-21T10:29:37;3.70;;;2.10;;
10469;SDS011;5282;47.052;15.458;2024-02-21T10:32:05;2.00;;;1.90;;
10469;SDS011;5282;47.052;15.458;2024-02-21T10:34:33;2.43;;;2.23;;
10469;SDS011;5282;47.052;15.458;2024-02-21T10:37:01;2.00;;;1.90;;
10469;SDS011;5282;47.052;15.458;2024-02-21T10:39:30;2.20;;;2.10;;
10469;SDS011;5282;47.052;15.458;2024-02-21T10:41:59;2.20;;;2.07;;
10469;SDS011;5282;47.052;15.458;2024-02-21T10:44:29;4.27;;;2.27;;
10469;SDS011;5282;47.052;15.458;2024-02-21T10:46:58;2.27;;;2.07;;
10469;SDS011;5282;47.052;15.458;2024-02-21T10:49:25;5.40;;;2.80;;
10469;SDS011;5282;47.052;15.458;2024-02-21T10:51:54;2.40;;;2.30;;
10469;SDS011;5282;47.052;15.458;2024-02-21T10:54:39;3.00;;;2.50;;
10469;SDS011;5282;47.052;15.458;2024-02-21T10:57:11;2.53;;;2.43;;
10469;SDS011;5282;47.052;15.458;2024-02-21T10:59:39;2.83;;;2.60;;
10469;SDS011;5282;47.052;15.458;2024-02-21T11:02:08;4.47;;;2.50;;
10469;SDS011;5282;47.052;15.458;2024-02-21T11:04:35;2.60;;;2.40;;
10469;SDS011;5282;47.052;15.458;2024-02-21T11:07:03;2.67;;;2.47;;
10469;SDS011;5282;47.052;15.458;2024-02-21T11:09:33;2.40;;;2.20;;
10469;SDS011;5282;47.052;15.458;2024-02-21T11:12:02;3.43;;;2.57;;
10469;SDS011;5282;47.052;15.458;2024-02-21T11:14:30;2.13;;;2.03;;
10469;SDS011;5282;47.052;15.458;2024-02-21T11:17:01;2.77;;;2.10;;
10469;SDS011;5282;47.052;15.458;2024-02-21T11:19:30;6.57;;;2.57;;
10469;SDS011;5282;47.052;15.458;2024-02-21T11:21:59;2.33;;;2.10;;
10469;SDS011;5282;47.052;15.458;2024-02-21T11:24:26;2.30;;;2.20;;
10469;SDS011;5282;47.052;15.458;2024-02-21T11:26:55;2.53;;;2.43;;
10469;SDS011;5282;47.052;15.458;2024-02-21T11:29:23;2.60;;;2.40;;
10469;SDS011;5282;47.052;15.458;2024-02-21T11:31:51;2.40;;;2.30;;
10469;SDS011;5282;47.052;15.458;2024-02-21T11:34:18;2.30;;;2.10;;
10469;SDS011;5282;47.052;15.458;2024-02-21T11:36:50;1.80;;;1.70;;
10469;SDS011;5282;47.052;15.458;2024-02-21T11:39:18;1.87;;;1.77;;
10469;SDS011;5282;47.052;15.458;2024-02-21T11:41:47;1.90;;;1.80;;
10469;SDS011;5282;47.052;15.458;2024-02-21T11:44:14;2.27;;;2.13;;
10469;SDS011;5282;47.052;15.458;2024-02-21T11:46:41;2.40;;;2.20;;
10469;SDS011;5282;47.052;15.458;2024-02-21T11:49:09;1.97;;;1.87;;
10469;SDS011;5282;47.052;15.458;2024-02-21T11:51:36;1.70;;;1.60;;
10469;SDS011;5282;47.052;15.458;2024-02-21T11:54:04;1.70;;;1.50;;
10469;SDS011;5282;47.052;15.458;2024-02-21T11:56:32;1.67;;;1.57;;
10469;SDS011;5282;47.052;15.458;2024-02-21T11:58:59;1.60;;;1.50;;
10469;SDS011;5282;47.052;15.458;2024-02-21T12:01:26;3.17;;;1.80;;
10469;SDS011;5282;47.052;15.458;2024-02-21T12:03:53;1.67;;;1.57;;
10469;SDS011;5282;47.052;15.458;2024-02-21T12:06:21;1.40;;;1.40;;
10469;SDS011;5282;47.052;15.458;2024-02-21T12:08:48;1.57;;;1.50;;
10469;SDS011;5282;47.052;15.458;2024-02-21T12:11:17;2.70;;;2.50;;
10469;SDS011;5282;47.052;15.458;2024-02-21T12:13:46;6.67;;;2.60;;
10469;SDS011;5282;47.052;15.458;2024-02-21T12:16:14;3.70;;;1.90;;
10469;SDS011;5282;47.052;15.458;2024-02-21T12:18:42;1.90;;;1.67;;
10469;SDS011;5282;47.052;15.458;2024-02-21T12:21:10;1.40;;;1.30;;
10469;SDS011;5282;47.052;15.458;2024-02-21T12:23:37;2.17;;;1.80;;
10469;SDS011;5282;47.052;15.458;2024-02-21T12:26:04;1.43;;;1.43;;
10469;SDS011;5282;47.052;15.458;2024-02-21T12:28:33;1.37;;;1.37;;
10469;SDS011;5282;47.052;15.458;2024-02-21T12:31:01;1.60;;;1.50;;
10469;SDS011;5282;47.052;15.458;2024-02-21T12:33:29;1.50;;;1.50;;
10469;SDS011;5282;47.052;15.458;2024-02-21T12:35:57;1.50;;;1.50;;
10469;SDS011;5282;47.052;15.458;2024-02-21T12:38:24;1.73;;;1.53;;
10469;SDS011;5282;47.052;15.458;2024-02-21T12:40:50;1.47;;;1.40;;
10469;SDS011;5282;47.052;15.458;2024-02-21T12:43:18;1.70;;;1.60;;
10469;SDS011;5282;47.052;15.458;2024-02-21T12:45:47;1.43;;;1.33;;
10469;SDS011;5282;47.052;15.458;2024-02-21T12:48:14;2.50;;;1.30;;
10469;SDS011;5282;47.052;15.458;2024-02-21T12:50:41;1.20;;;1.20;;
10469;SDS011;5282;47.052;15.458;2024-02-21T12:53:15;1.07;;;1.07;;
10469;SDS011;5282;47.052;15.458;2024-02-21T12:55:43;1.20;;;1.20;;
10469;SDS011;5282;47.052;15.458;2024-02-21T12:58:10;1.23;;;1.13;;
10469;SDS011;5282;47.052;15.458;2024-02-21T13:00:37;1.93;;;1.30;;
10469;SDS011;5282;47.052;15.458;2024-02-21T13:03:05;0.93;;;0.93;;
10469;SDS011;5282;47.052;15.458;2024-02-21T13:05:32;1.43;;;1.27;;
10469;SDS011;5282;47.052;15.458;2024-02-21T13:08:00;1.37;;;1.30;;
10469;SDS011;5282;47.052;15.458;2024-02-21T13:10:27;1.30;;;1.20;;
10469;SDS011;5282;47.052;15.458;2024-02-21T13:12:54;1.50;;;1.40;;
10469;SDS011;5282;47.052;15.458;2024-02-21T13:15:20;2.17;;;1.17;;
10469;SDS011;5282;47.052;15.458;2024-02-21T13:17:47;1.00;;;1.00;;
10469;SDS011;5282;47.052;15.458;2024-02-21T13:20:16;1.37;;;1.27;;
10469;SDS011;5282;47.052;15.458;2024-02-21T13:22:43;1.50;;;1.40;;
10469;SDS011;5282;47.052;15.458;2024-02-21T13:25:10;1.03;;;1.03;;
10469;SDS011;5282;47.052;15.458;2024-02-21T13:27:40;1.10;;;1.10;;
10469;SDS011;5282;47.052;15.458;2024-02-21T13:30:07;1.07;;;1.07;;
10469;SDS011;5282;47.052;15.458;2024-02-21T13:32:35;1.17;;;1.17;;
10469;SDS011;5282;47.052;15.458;2024-02-21T13:35:02;1.27;;;1.17;;
10469;SDS011;5282;47.052;15.458;2024-02-21T13:37:31;1.47;;;1.30;;
10469;SDS011;5282;47.052;15.458;2024-02-21T13:39:58;1.30;;;1.30;;
10469;SDS011;5282;47.052;15.458;2024-02-21T13:42:24;1.30;;;1.20;;
10469;SDS011;5282;47.052;15.458;2024-02-21T13:44:53;1.10;;;1.10;;
10469;SDS011;5282;47.052;15.458;2024-02-21T13:47:20;1.30;;;1.20;;
10469;SDS011;5282;47.052;15.458;2024-02-21T13:49:49;1.07;;;1.07;;
10469;SDS011;5282;47.052;15.458;2024-02-21T13:52:16;1.33;;;0.97;;
10469;SDS011;5282;47.052;15.458;2024-02-21T13:54:46;1.00;;;1.00;;
10469;SDS011;5282;47.052;15.458;2024-02-21T13:57:13;1.43;;;1.07;;
10469;SDS011;5282;47.052;15.458;2024-02-21T13:59:40;1.03;;;1.03;;
10469;SDS011;5282;47.052;15.458;2024-02-21T14:02:08;1.23;;;1.23;;
10469;SDS011;5282;47.052;15.458;2024-02-21T14:04:35;1.30;;;1.20;;
10469;SDS011;5282;47.052;15.458;2024-02-21T14:07:02;1.17;;;1.17;;
10469;SDS011;5282;47.052;15.458;2024-02-21T14:09:29;1.00;;;1.00;;
10469;SDS011;5282;47.052;15.458;2024-02-21T14:11:57;1.73;;;1.17;;
10469;SDS011;5282;47.052;15.458;2024-02-21T14:14:27;1.03;;;1.00;;
10469;SDS011;5282;47.052;15.458;2024-02-21T14:16:54;1.20;;;1.10;;
10469;SDS011;5282;47.052;15.458;2024-02-21T14:19:21;1.27;;;1.00;;
10469;SDS011;5282;47.052;15.458;2024-02-21T14:21:48;1.87;;;1.10;;
10469;SDS011;5282;47.052;15.458;2024-02-21T14:24:15;1.30;;;1.20;;
10469;SDS011;5282;47.052;15.458;2024-02-21T14:26:41;1.40;;;1.30;;
10469;SDS011;5282;47.052;15.458;2024-02-21T14:29:10;1.00;;;1.00;;
10469;SDS011;5282;47.052;15.458;2024-02-21T14:31:39;1.20;;;1.20;;
10469;SDS011;5282;47.052;15.458;2024-02-21T14:34:06;1.20;;;1.10;;
10469;SDS011;5282;47.052;15.458;2024-02-21T14:36:33;1.13;;;1.03;;
10469;SDS011;5282;47.052;15.458;2024-02-21T14:39:00;1.13;;;0.90;;
10469;SDS011;5282;47.052;15.458;2024-02-21T14:41:28;0.97;;;0.97;;
10469;SDS011;5282;47.052;15.458;2024-02-21T14:43:55;1.17;;;1.13;;
10469;SDS011;5282;47.052;15.458;2024-02-21T14:46:26;0.97;;;0.97;;
10469;SDS011;5282;47.052;15.458;2024-02-21T14:48:54;2.77;;;1.13;;
10469;SDS011;5282;47.052;15.458;2024-02-21T14:51:21;1.23;;;1.20;;
10469;SDS011;5282;47.052;15.458;2024-02-21T14:53:48;1.37;;;1.20;;
10469;SDS011;5282;47.052;15.458;2024-02-21T14:56:16;1.00;;;1.00;;
10469;SDS011;5282;47.052;15.458;2024-02-21T14:58:44;2.27;;;0.73;;
10469;SDS011;5282;47.052;15.458;2024-02-21T15:01:12;1.37;;;1.30;;